Time;durP1;ratioP1;P1;durP2;ratioP2;P2;SDS_P1;SDS_P2;PMS_P1;PMS_P2;Temp;Humidity;BMP_temperature;BMP_pressure;BME280_temperature;BME280_humidity;BME280_pressure;Samples;Min_cycle;Max_cycle;Signal;HPM_P1;HPM_P2
2023/09/07 00:00:13;;;;;;;11.63;10.45;;;;;;;19.12;100.00;101803.97;5014225;28;20499;-44
2023/09/07 00:02:39;;;;;;;13.05;11.80;;;;;;;18.82;100.00;101755.75;5014154;28;20176;-47
2023/09/07 00:05:06;;;;;;;14.52;11.45;;;;;;;19.05;100.00;101787.41;5014065;28;20084;-49
2023/09/07 00:07:31;;;;;;;11.38;10.38;;;;;;;19.05;100.00;101785.63;4996835;28;20490;-47
2023/09/07 00:09:56;;;;;;;12.10;10.88;;;;;;;19.04;100.00;101794.56;5014382;28;20117;-50
2023/09/07 00:12:22;;;;;;;12.35;11.25;;;;;;;18.98;100.00;101775.31;5013479;28;20034;-47
2023/09/07 00:14:47;;;;;;;12.45;11.23;;;;;;;18.95;100.00;101786.16;5014471;28;20034;-46
2023/09/07 00:17:13;;;;;;;12.73;11.55;;;;;;;18.93;100.00;101780.91;5014046;28;20040;-49
2023/09/07 00:19:38;;;;;;;11.82;10.40;;;;;;;18.93;100.00;101786.25;5014249;28;20030;-52
2023/09/07 00:22:04;;;;;;;12.05;10.95;;;;;;;18.91;100.00;101782.78;5014176;28;20037;-46
2023/09/07 00:24:31;;;;;;;11.73;10.60;;;;;;;18.66;100.00;101746.78;5028208;28;20402;-47
2023/09/07 00:26:56;;;;;;;11.88;10.75;;;;;;;18.86;100.00;101778.63;5028285;28;20042;-47
2023/09/07 00:29:22;;;;;;;11.50;10.40;;;;;;;18.43;100.00;101716.81;4996186;28;20038;-46
2023/09/07 00:31:47;;;;;;;11.68;10.57;;;;;;;18.43;100.00;101715.94;5013786;28;20073;-48
2023/09/07 00:34:12;;;;;;;11.60;10.55;;;;;;;18.63;100.00;101749.63;5014041;28;20037;-49
2023/09/07 00:36:38;;;;;;;11.50;10.40;;;;;;;18.79;100.00;101790.56;5014047;28;20121;-48
2023/09/07 00:39:04;;;;;;;11.50;10.40;;;;;;;18.73;100.00;101781.09;5013841;28;20124;-45
2023/09/07 00:41:30;;;;;;;11.43;10.43;;;;;;;18.56;100.00;101761.56;5013528;28;20034;-46
2023/09/07 00:43:55;;;;;;;11.55;10.43;;;;;;;18.71;100.00;101782.94;5026046;28;20042;-47
2023/09/07 00:46:21;;;;;;;11.20;10.15;;;;;;;18.42;100.00;101730.22;5033147;28;20104;-47
2023/09/07 00:48:47;;;;;;;12.18;10.82;;;;;;;18.28;100.00;101706.06;5033409;28;20116;-46
2023/09/07 00:51:13;;;;;;;14.52;11.77;;;;;;;18.64;100.00;101770.88;5033206;28;20076;-45
2023/09/07 00:53:38;;;;;;;11.98;10.98;;;;;;;18.67;100.00;101781.41;5048592;28;20076;-47
2023/09/07 00:56:04;;;;;;;10.98;10.07;;;;;;;18.37;100.00;101733.13;5015459;28;20033;-47
2023/09/07 00:58:29;;;;;;;12.15;10.98;;;;;;;18.57;100.00;101771.25;5045532;28;20449;-46
2023/09/07 01:00:55;;;;;;;12.48;11.07;;;;;;;18.34;100.00;101741.28;5013154;28;20099;-46
2023/09/07 01:03:20;;;;;;;12.10;11.00;;;;;;;18.05;100.00;101693.91;5013456;28;20144;-47
2023/09/07 01:06:10;;;;;;;13.70;12.30;;;;;;;18.47;100.00;101777.03;5013169;28;20057;-45
2023/09/07 01:08:40;;;;;;;12.43;11.17;;;;;;;18.37;100.00;101761.56;4995556;28;20025;-45
2023/09/07 01:11:15;;;;;;;12.85;11.63;;;;;;;18.37;100.00;101766.91;5012839;28;20324;-47
2023/09/07 01:13:42;;;;;;;12.23;10.93;;;;;;;18.27;100.00;101755.00;5028497;28;20038;-47
2023/09/07 01:16:07;;;;;;;12.38;11.27;;;;;;;18.27;100.00;101758.50;5012400;28;20034;-48
2023/09/07 01:18:33;;;;;;;13.35;12.05;;;;;;;18.23;100.00;101764.94;5012938;28;20041;-44
2023/09/07 01:21:00;;;;;;;13.77;12.48;;;;;;;18.20;100.00;101761.56;5013251;28;20037;-46
2023/09/07 01:23:26;;;;;;;12.30;11.00;;;;;;;18.17;100.00;101754.56;5028090;28;20084;-48
2023/09/07 01:25:51;;;;;;;13.32;12.10;;;;;;;17.79;100.00;101689.00;5012879;28;20434;-46
2023/09/07 01:28:17;;;;;;;13.98;12.43;;;;;;;18.15;100.00;101764.47;5013054;28;20076;-50
2023/09/07 01:30:42;;;;;;;13.63;12.23;;;;;;;18.04;100.00;101764.09;5012840;28;20065;-49
2023/09/07 01:33:08;;;;;;;12.90;11.65;;;;;;;18.01;100.00;101769.56;4995072;28;20038;-47
2023/09/07 01:35:34;;;;;;;12.88;11.48;;;;;;;17.98;100.00;101759.06;4994229;28;20288;-45
2023/09/07 01:38:00;;;;;;;14.63;11.23;;;;;;;17.93;100.00;101756.63;4995154;28;20112;-45
2023/09/07 01:40:25;;;;;;;13.35;12.05;;;;;;;17.53;100.00;101695.53;5012631;28;20471;-45
2023/09/07 01:42:50;;;;;;;13.32;12.13;;;;;;;17.45;100.00;101684.41;5012905;28;20042;-45
2023/09/07 01:45:16;;;;;;;13.65;12.32;;;;;;;17.42;100.00;101684.53;5012663;28;20165;-51
2023/09/07 01:47:41;;;;;;;14.60;13.05;;;;;;;17.79;100.00;101752.91;5012507;28;20045;-45
2023/09/07 01:50:07;;;;;;;13.95;12.73;;;;;;;17.34;100.00;101684.88;5012483;28;20380;-46
2023/09/07 01:52:32;;;;;;;14.45;13.15;;;;;;;17.70;100.00;101750.69;5011725;28;20518;-46
2023/09/07 01:54:57;;;;;;;14.90;13.45;;;;;;;17.67;100.00;101754.34;5027340;28;20129;-44
2023/09/07 01:57:23;;;;;;;15.82;13.23;;;;;;;17.55;100.00;101741.59;5012563;28;20402;-47
2023/09/07 01:59:48;;;;;;;15.80;14.20;;;;;;;17.53;100.00;101748.78;4994827;28;20037;-45
2023/09/07 02:02:14;;;;;;;16.00;14.40;;;;;;;17.17;100.00;101684.81;5012385;28;20038;-45
2023/09/07 02:04:40;;;;;;;16.17;14.55;;;;;;;17.55;100.00;101759.38;5012150;28;20553;-48
2023/09/07 02:07:06;;;;;;;16.45;15.05;;;;;;;17.42;100.00;101741.28;5012294;28;20114;-49
2023/09/07 02:09:31;;;;;;;16.17;14.57;;;;;;;17.49;100.00;101752.50;5011534;28;20066;-48
2023/09/07 02:11:56;;;;;;;15.48;13.98;;;;;;;17.47;100.00;101759.72;5012172;28;20092;-45
2023/09/07 02:14:22;;;;;;;15.13;13.73;;;;;;;17.42;100.00;101757.25;5012339;28;20029;-47
2023/09/07 02:16:47;;;;;;;15.38;13.98;;;;;;;17.36;100.00;101756.69;5012055;28;20030;-49
2023/09/07 02:19:12;;;;;;;17.33;15.40;;;;;;;17.37;100.00;101777.91;5011962;28;20026;-48
2023/09/07 02:21:38;;;;;;;17.20;15.57;;;;;;;16.92;100.00;101686.88;5012166;28;20395;-49
2023/09/07 02:24:03;;;;;;;17.23;15.20;;;;;;;16.92;100.00;101688.66;5011855;28;20030;-47
2023/09/07 02:26:29;;;;;;;16.35;14.85;;;;;;;17.27;100.00;101763.28;5011368;28;20041;-49
2023/09/07 02:28:54;;;;;;;17.75;15.88;;;;;;;17.16;100.00;101746.09;5011917;28;20026;-50
2023/09/07 02:31:20;;;;;;;16.60;15.00;;;;;;;17.19;100.00;101749.44;5011973;28;20475;-49
2023/09/07 02:33:46;;;;;;;18.05;16.25;;;;;;;17.22;100.00;101751.13;4994399;28;20032;-50
2023/09/07 02:36:11;;;;;;;17.85;16.25;;;;;;;17.19;100.00;101752.13;5011824;28;20476;-45
2023/09/07 02:38:36;;;;;;;17.70;16.08;;;;;;;17.21;100.00;101757.38;5012009;28;20121;-49
2023/09/07 02:41:02;;;;;;;16.95;15.35;;;;;;;16.79;100.00;101683.91;5011803;28;20103;-47
2023/09/07 02:43:27;;;;;;;16.67;15.18;;;;;;;16.68;100.00;101670.22;5011473;28;20053;-46
2023/09/07 02:45:53;;;;;;;18.10;16.30;;;;;;;17.19;100.00;101754.78;5011891;28;20038;-47
2023/09/07 02:48:18;;;;;;;17.67;16.00;;;;;;;17.19;100.00;101756.59;5015539;28;20045;-47
2023/09/07 02:50:48;;;;;;;18.63;15.63;;;;;;;16.76;100.00;101685.81;5030894;28;20076;-48
2023/09/07 02:53:14;;;;;;;16.70;15.20;;;;;;;16.88;100.00;101707.44;5030265;28;20129;-46
2023/09/07 02:55:39;;;;;;;17.52;15.65;;;;;;;17.07;100.00;101739.41;5015973;28;20395;-46
2023/09/07 02:58:05;;;;;;;18.17;16.35;;;;;;;17.17;100.00;101764.63;5015917;28;20395;-48
2023/09/07 03:00:30;;;;;;;18.35;16.50;;;;;;;16.68;100.00;101690.63;5026850;28;20041;-48
2023/09/07 03:02:56;;;;;;;17.25;15.50;;;;;;;16.56;100.00;101653.94;5035410;28;20033;-46
2023/09/07 03:05:22;;;;;;;17.15;15.07;;;;;;;17.19;100.00;101777.88;5035367;28;20049;-50
2023/09/07 03:07:47;;;;;;;19.98;17.02;;;;;;;16.92;100.00;101716.13;5035156;28;20229;-47
2023/09/07 03:10:13;;;;;;;17.65;15.88;;;;;;;17.20;100.00;101766.28;5035661;28;20033;-45
2023/09/07 03:12:39;;;;;;;18.65;16.80;;;;;;;16.07;100.00;101586.13;5035047;28;20076;-46
2023/09/07 03:15:05;;;;;;;17.67;16.17;;;;;;;17.16;100.00;101770.88;5035175;28;20042;-48
2023/09/07 03:17:30;;;;;;;18.50;16.80;;;;;;;17.09;100.00;101766.78;5022060;28;20041;-48
2023/09/07 03:19:56;;;;;;;20.33;16.83;;;;;;;17.13;100.00;101765.69;4997603;28;20026;-47
2023/09/07 03:22:22;;;;;;;18.40;16.58;;;;;;;17.11;100.00;101762.25;5015302;28;20033;-46
2023/09/07 03:24:50;;;;;;;17.52;15.95;;;;;;;16.96;100.00;101741.63;5030642;28;20034;-47
2023/09/07 03:27:15;;;;;;;18.80;17.08;;;;;;;17.05;100.00;101762.50;5014989;28;20458;-50
2023/09/07 03:29:40;;;;;;;19.83;18.02;;;;;;;17.03;100.00;101763.53;5014898;28;20041;-47
2023/09/07 03:32:06;;;;;;;17.75;15.95;;;;;;;16.99;100.00;101751.31;5015031;28;20093;-48
2023/09/07 03:34:31;;;;;;;17.92;16.33;;;;;;;16.70;100.00;101704.72;5014449;28;20042;-47
2023/09/07 03:36:57;;;;;;;18.67;16.75;;;;;;;16.95;100.00;101755.03;5015283;28;20038;-52
2023/09/07 03:39:22;;;;;;;18.00;16.30;;;;;;;16.93;100.00;101747.09;5030387;28;20372;-49
2023/09/07 03:41:48;;;;;;;20.50;18.42;;;;;;;16.79;100.00;101730.88;5030221;28;20475;-46
2023/09/07 03:44:13;;;;;;;18.80;17.02;;;;;;;16.91;100.00;101759.59;5030282;28;20038;-50
2023/09/07 03:46:38;;;;;;;20.27;18.23;;;;;;;16.52;100.00;101695.69;5030176;28;20069;-47
2023/09/07 03:49:04;;;;;;;20.13;18.17;;;;;;;16.78;100.00;101739.81;5014736;28;20064;-50
2023/09/07 03:51:29;;;;;;;21.40;19.15;;;;;;;16.83;100.00;101764.41;5014026;28;20395;-49
2023/09/07 03:53:54;;;;;;;20.50;18.48;;;;;;;16.81;100.00;101751.16;5029860;28;20038;-48
2023/09/07 03:56:20;;;;;;;21.60;19.58;;;;;;;16.37;100.00;101688.41;5014816;28;20041;-47
2023/09/07 03:58:47;;;;;;;21.45;19.35;;;;;;;16.83;100.00;101759.97;5029779;28;20037;-48
2023/09/07 04:01:13;;;;;;;21.95;19.75;;;;;;;16.34;100.00;101684.06;5014708;28;20470;-48
2023/09/07 04:03:38;;;;;;;21.67;19.50;;;;;;;16.76;100.00;101758.47;5029968;28;20117;-45
2023/09/07 04:06:04;;;;;;;20.65;18.63;;;;;;;16.76;100.00;101760.28;5014088;28;20463;-46
2023/09/07 04:08:29;;;;;;;20.08;18.17;;;;;;;16.72;100.00;101762.19;5013711;28;20042;-46
2023/09/07 04:10:55;;;;;;;21.67;19.08;;;;;;;16.28;100.00;101692.34;5014510;28;20046;-46
2023/09/07 04:13:21;;;;;;;23.48;20.75;;;;;;;16.30;100.00;101706.41;5014414;28;20076;-50
2023/09/07 04:15:46;;;;;;;21.98;19.77;;;;;;;16.57;100.00;101746.06;5029761;28;20030;-46
2023/09/07 04:18:15;;;;;;;21.65;19.23;;;;;;;16.67;100.00;101766.84;5029500;28;20121;-47
2023/09/07 04:20:40;;;;;;;23.08;20.50;;;;;;;16.64;100.00;101769.63;5014137;28;20092;-46
2023/09/07 04:23:05;;;;;;;24.30;21.23;;;;;;;16.34;100.00;101733.72;5013466;28;20038;-47
2023/09/07 04:25:32;;;;;;;23.45;21.17;;;;;;;15.74;100.00;101623.78;5014257;28;20115;-50
2023/09/07 04:27:58;;;;;;;23.27;20.58;;;;;;;16.51;100.00;101765.75;5014096;28;20030;-51
2023/09/07 04:30:23;;;;;;;22.95;20.60;;;;;;;16.47;100.00;101763.28;4995338;28;20029;-46
2023/09/07 04:32:49;;;;;;;21.85;19.75;;;;;;;16.11;100.00;101697.47;5013174;28;20060;-47
2023/09/07 04:35:14;;;;;;;23.02;20.73;;;;;;;16.10;100.00;101701.06;5020897;28;20029;-48
2023/09/07 04:37:42;;;;;;;22.58;20.27;;;;;;;16.44;100.00;101772.25;5015641;28;20482;-49
2023/09/07 04:40:07;;;;;;;22.98;20.58;;;;;;;16.38;100.00;101769.84;5021515;28;20505;-52
2023/09/07 04:42:33;;;;;;;21.85;19.73;;;;;;;16.34;100.00;101771.75;5022285;28;20061;-48
2023/09/07 04:44:58;;;;;;;24.77;22.23;;;;;;;15.89;100.00;101703.72;5015239;28;20042;-46
2023/09/07 04:47:23;;;;;;;24.70;22.25;;;;;;;15.89;100.00;101701.06;5035299;28;20128;-46
2023/09/07 04:49:50;;;;;;;25.48;21.83;;;;;;;15.82;100.00;101700.44;5026383;28;20045;-48
2023/09/07 04:52:16;;;;;;;24.65;22.00;;;;;;;16.28;100.00;101771.16;5022441;28;20040;-45
2023/09/07 04:54:41;;;;;;;26.50;23.67;;;;;;;16.26;100.00;101779.19;5012502;28;20034;-46
2023/09/07 04:57:06;;;;;;;25.23;22.60;;;;;;;16.27;100.00;101778.25;5013025;28;20037;-46
2023/09/07 04:59:32;;;;;;;26.45;23.65;;;;;;;16.28;100.00;101785.31;5013462;28;20117;-50
2023/09/07 05:02:01;;;;;;;25.25;22.73;;;;;;;15.77;100.00;101699.78;5013342;28;20038;-45
2023/09/07 05:04:26;;;;;;;24.63;22.02;;;;;;;15.89;100.00;101722.31;4995620;28;20395;-46
2023/09/07 05:06:52;;;;;;;25.08;22.08;;;;;;;16.24;100.00;101783.69;5012702;28;20154;-48
2023/09/07 05:09:17;;;;;;;25.10;22.65;;;;;;;16.09;100.00;101760.41;5012530;28;20037;-46
2023/09/07 05:11:42;;;;;;;25.58;22.83;;;;;;;16.22;100.00;101787.34;5012935;28;20554;-51
2023/09/07 05:14:07;;;;;;;25.92;23.25;;;;;;;15.81;100.00;101721.75;5013144;28;20037;-45
2023/09/07 05:16:33;;;;;;;25.48;22.40;;;;;;;15.77;100.00;101715.69;5012520;28;20515;-46
2023/09/07 05:18:58;;;;;;;26.17;22.30;;;;;;;16.20;100.00;101789.19;5012544;28;20038;-46
2023/09/07 05:21:23;;;;;;;24.95;22.40;;;;;;;15.79;100.00;101724.47;5013217;28;20049;-45
2023/09/07 05:23:49;;;;;;;25.73;23.05;;;;;;;16.23;100.00;101795.25;5013194;28;20030;-47
2023/09/07 05:26:14;;;;;;;25.52;23.08;;;;;;;16.16;100.00;101779.63;5012427;28;20060;-49
2023/09/07 05:28:41;;;;;;;25.70;23.02;;;;;;;15.88;100.00;101729.41;5013113;28;20050;-45
2023/09/07 05:31:07;;;;;;;25.63;22.95;;;;;;;16.27;100.00;101799.53;5027751;28;20113;-47
2023/09/07 05:33:32;;;;;;;30.02;24.40;;;;;;;15.91;100.00;101731.94;5012618;28;20034;-48
2023/09/07 05:35:58;;;;;;;26.90;24.00;;;;;;;16.34;100.00;101793.00;5012582;28;20041;-49
2023/09/07 05:38:23;;;;;;;27.75;24.92;;;;;;;16.34;100.00;101793.00;5012477;28;20403;-48
2023/09/07 05:40:50;;;;;;;26.33;23.52;;;;;;;15.93;100.00;101721.28;5012836;28;20077;-51
2023/09/07 05:43:15;;;;;;;26.33;23.73;;;;;;;16.42;100.00;101800.69;5011590;28;20117;-47
2023/09/07 05:45:41;;;;;;;25.13;22.42;;;;;;;16.18;100.00;101751.22;5012120;28;20482;-48
2023/09/07 05:48:07;;;;;;;24.35;22.05;;;;;;;16.49;100.00;101794.16;5027764;28;20529;-47
2023/09/07 05:50:37;;;;;;;23.25;21.00;;;;;;;16.52;100.00;101812.66;5027474;28;20251;-46
2023/09/07 05:53:03;;;;;;;23.30;20.90;;;;;;;16.59;100.00;101800.00;5011537;28;20042;-47
2023/09/07 05:55:29;;;;;;;22.75;20.35;;;;;;;16.60;100.00;101802.63;5012526;28;20108;-47
2023/09/07 05:57:55;;;;;;;22.60;20.45;;;;;;;16.74;100.00;101813.53;5012216;28;20511;-48
2023/09/07 06:00:21;;;;;;;24.15;21.65;;;;;;;16.41;100.00;101739.63;4994229;28;20068;-46
2023/09/07 06:02:46;;;;;;;24.35;20.88;;;;;;;16.92;100.00;101816.31;5012303;28;20467;-48
2023/09/07 06:05:12;;;;;;;23.25;20.88;;;;;;;16.64;100.00;101751.03;5012308;28;20049;-48
2023/09/07 06:07:37;;;;;;;23.83;21.42;;;;;;;17.03;100.00;101809.59;4978451;28;20112;-47
2023/09/07 06:10:05;;;;;;;21.77;19.73;;;;;;;16.64;100.00;101732.41;5011839;28;20080;-47
2023/09/07 06:12:30;;;;;;;22.02;19.40;;;;;;;16.82;100.00;101757.34;5011646;28;20034;-47
2023/09/07 06:14:56;;;;;;;21.63;19.58;;;;;;;17.17;100.00;101809.84;5010761;28;20034;-50
2023/09/07 06:17:21;;;;;;;23.45;20.65;;;;;;;16.88;100.00;101744.66;5012099;28;20103;-49
2023/09/07 06:19:46;;;;;;;22.25;20.10;;;;;;;17.08;100.00;101780.13;5026525;28;20188;-48
2023/09/07 06:22:12;;;;;;;21.95;19.45;;;;;;;17.43;100.00;101816.66;5010715;28;20030;-46
2023/09/07 06:24:37;;;;;;;21.40;18.95;;;;;;;17.53;100.00;101828.66;5012130;28;20045;-48
2023/09/07 06:27:03;;;;;;;21.38;19.17;;;;;;;17.59;100.00;101824.88;5012043;28;20037;-46
2023/09/07 06:29:28;;;;;;;21.17;19.05;;;;;;;17.25;100.00;101758.97;5012083;28;20135;-51
2023/09/07 06:31:53;;;;;;;20.60;17.98;;;;;;;17.73;100.00;101830.41;5011572;28;20121;-51
2023/09/07 06:34:18;;;;;;;21.48;18.40;;;;;;;17.90;100.00;101828.69;5026899;28;20057;-47
2023/09/07 06:36:44;;;;;;;17.42;15.73;;;;;;;17.65;100.00;101750.91;5010842;28;20038;-48
2023/09/07 06:39:09;;;;;;;19.27;17.13;;;;;;;18.31;100.00;101820.50;5011718;28;20053;-46
2023/09/07 06:41:34;;;;;;;16.58;14.93;;;;;;;18.46;100.00;101815.31;5011483;28;20046;-45
2023/09/07 06:44:00;;;;;;;17.05;15.25;;;;;;;18.38;100.00;101774.84;5011582;28;20034;-48
2023/09/07 06:46:25;;;;;;;17.80;15.88;;;;;;;18.76;100.00;101820.94;5011434;28;20038;-45
2023/09/07 06:48:50;;;;;;;16.60;14.75;;;;;;;18.87;100.00;101820.38;5011317;28;20042;-45
2023/09/07 06:51:16;;;;;;;16.85;15.25;;;;;;;18.58;100.00;101751.66;5025394;28;20033;-44
2023/09/07 06:53:41;;;;;;;16.40;14.90;;;;;;;18.74;100.00;101756.13;4994026;28;20046;-48
2023/09/07 06:56:06;;;;;;;15.98;14.50;;;;;;;19.21;100.00;101825.69;5026728;28;20096;-47
2023/09/07 06:58:34;;;;;;;15.63;14.07;;;;;;;18.93;100.00;101758.69;5011485;28;20045;-45
2023/09/07 07:00:59;;;;;;;16.00;14.30;;;;;;;19.36;100.00;101803.53;5011519;28;20212;-45
2023/09/07 07:03:27;;;;;;;15.02;13.57;;;;;;;19.58;100.00;101828.13;5026405;28;20567;-47
2023/09/07 07:05:52;;;;;;;15.15;13.55;;;;;;;19.69;100.00;101835.59;5011292;28;20103;-46
2023/09/07 07:08:18;;;;;;;15.02;13.63;;;;;;;19.68;100.00;101833.84;5010711;28;20038;-52
2023/09/07 07:10:43;;;;;;;15.48;13.88;;;;;;;19.93;100.00;101842.28;5011452;28;20036;-44
2023/09/07 07:13:08;;;;;;;13.88;12.57;;;;;;;19.68;100.00;101780.44;5011440;28;20080;-48
2023/09/07 07:15:35;;;;;;;14.32;12.60;;;;;;;19.91;100.00;101795.19;5011365;28;20092;-46
2023/09/07 07:18:01;;;;;;;14.20;12.70;;;;;;;20.33;100.00;101848.06;5011315;28;20109;-49
2023/09/07 07:20:26;;;;;;;15.48;13.32;;;;;;;20.00;100.00;101768.81;4993679;28;20045;-46
2023/09/07 07:22:51;;;;;;;13.15;11.95;;;;;;;20.57;100.00;101841.31;5025960;28;20091;-47
2023/09/07 07:25:17;;;;;;;13.15;11.80;;;;;;;20.58;100.00;101835.00;5011675;28;20391;-46
2023/09/07 07:27:42;;;;;;;12.07;10.82;;;;;;;20.80;100.00;101842.63;4993880;28;20342;-48
2023/09/07 07:30:08;;;;;;;13.15;11.85;;;;;;;20.97;100.00;101842.50;5011340;28;20391;-46
2023/09/07 07:32:33;;;;;;;13.10;11.80;;;;;;;21.13;100.00;101843.34;5011593;28;20041;-47
2023/09/07 07:34:59;;;;;;;13.15;11.77;;;;;;;21.33;100.00;101843.00;5014580;28;20487;-47
2023/09/07 07:37:24;;;;;;;11.75;10.65;;;;;;;21.06;100.00;101775.03;5014072;28;20542;-48
2023/09/07 07:39:49;;;;;;;12.95;11.15;;;;;;;21.66;100.00;101837.34;5014479;28;20036;-46
2023/09/07 07:42:15;;;;;;;13.38;11.20;;;;;;;21.84;100.00;101842.41;5029911;28;20040;-48
2023/09/07 07:44:40;;;;;;;15.32;10.48;;;;;;;22.10;100.00;101847.94;5014460;28;20038;-49
2023/09/07 07:47:06;;;;;;;12.60;10.13;;;;;;;22.06;100.00;101793.69;5014396;28;20034;-48
2023/09/07 07:49:32;;;;;;;12.60;10.00;;;;;;;22.72;100.00;101855.44;5014400;28;20033;-49
2023/09/07 07:51:58;;;;;;;12.85;9.88;;;;;;;22.93;100.00;101797.63;5029656;28;20048;-48
2023/09/07 07:54:24;;;;;;;10.27;8.98;;;;;;;23.80;100.00;101873.00;5013726;28;20116;-48
2023/09/07 07:56:50;;;;;;;10.18;9.00;;;;;;;23.95;100.00;101782.28;5014392;28;20034;-48
2023/09/07 07:59:15;;;;;;;9.65;8.73;;;;;;;24.73;100.00;101807.78;5014318;28;20033;-48
2023/09/07 08:01:41;;;;;;;11.13;9.13;;;;;;;25.10;100.00;101793.22;5014188;28;20121;-48
2023/09/07 08:04:07;;;;;;;9.48;8.57;;;;;;;25.96;100.00;101855.53;5029740;28;20073;-45
2023/09/07 08:06:33;;;;;;;10.38;8.60;;;;;;;26.39;100.00;101877.22;5013982;28;20391;-48
2023/09/07 08:08:58;;;;;;;9.23;7.72;;;;;;;26.76;100.00;101883.13;5013600;28;20041;-51
2023/09/07 08:11:25;;;;;;;9.25;8.23;;;;;;;26.72;100.00;101869.03;5014218;28;20038;-48
2023/09/07 08:13:50;;;;;;;11.30;8.93;;;;;;;27.00;100.00;101880.25;4996202;28;20054;-49
2023/09/07 08:16:17;;;;;;;9.07;7.80;;;;;;;27.07;100.00;101832.78;5029327;28;20136;-48
2023/09/07 08:18:42;;;;;;;12.07;8.52;;;;;;;27.81;100.00;101886.63;5014331;28;20143;-50
2023/09/07 08:21:08;;;;;;;8.50;7.63;;;;;;;27.57;100.00;101840.06;5013762;28;20509;-47
2023/09/07 08:23:34;;;;;;;9.75;6.57;;;;;;;27.62;100.00;101831.53;5014283;28;20483;-52
2023/09/07 08:25:59;;;;;;;7.90;6.90;;;;;;;28.21;100.00;101881.22;5014078;28;20423;-49
2023/09/07 08:28:25;;;;;;;7.43;6.72;;;;;;;28.08;100.00;101842.72;5014103;28;20110;-47
2023/09/07 08:30:54;;;;;;;7.43;6.68;;;;;;;28.66;100.00;101843.72;4996306;28;20034;-50
2023/09/07 08:33:23;;;;;;;9.10;7.38;;;;;;;29.12;100.00;101902.59;5014116;28;20037;-49
2023/09/07 08:35:54;;;;;;;7.78;6.93;;;;;;;29.23;100.00;101915.19;5029453;28;20032;-48
2023/09/07 08:38:22;;;;;;;7.97;6.28;;;;;;;29.51;100.00;101896.13;4996255;28;20406;-48
2023/09/07 08:40:48;;;;;;;8.35;6.82;;;;;;;29.69;100.00;101885.38;5013886;28;20104;-47
2023/09/07 08:43:14;;;;;;;10.05;7.28;;;;;;;29.87;100.00;101891.78;5013766;28;20030;-48
2023/09/07 08:45:43;;;;;;;8.73;6.50;;;;;;;29.68;100.00;101864.69;4995548;28;20037;-49
2023/09/07 08:48:10;;;;;;;7.35;6.65;;;;;;;30.04;100.00;101892.84;5029302;28;20036;-47
2023/09/07 08:50:37;;;;;;;10.88;6.50;;;;;;;30.15;100.00;101886.38;5028937;28;20041;-51
2023/09/07 08:53:03;;;;;;;8.27;6.50;;;;;;;30.31;100.00;101895.56;4996250;28;20034;-51
2023/09/07 08:55:28;;;;;;;9.50;6.65;;;;;;;29.85;100.00;101884.78;5013484;28;20045;-52
2023/09/07 08:57:54;;;;;;;8.85;6.68;;;;;;;29.93;100.00;101830.59;5013343;28;20113;-47
2023/09/07 09:00:20;;;;;;;10.32;6.57;;;;;;;30.53;100.00;101895.16;5028928;28;20030;-46
2023/09/07 09:02:48;;;;;;;8.80;6.80;;;;;;;30.48;100.00;101828.69;5013712;28;20068;-50
2023/09/07 09:05:14;;;;;;;8.32;6.63;;;;;;;30.89;100.00;101885.16;5013089;28;20030;-51
2023/09/07 09:07:40;;;;;;;8.63;7.22;;;;;;;30.59;100.00;101870.06;5013628;28;20037;-48
2023/09/07 09:10:08;;;;;;;7.70;6.18;;;;;;;30.78;100.00;101881.81;5013205;28;20034;-50
2023/09/07 09:12:34;;;;;;;6.88;6.18;;;;;;;30.98;100.00;101883.38;5012116;28;20121;-50
2023/09/07 09:15:01;;;;;;;7.15;5.93;;;;;;;31.52;100.00;101883.19;5013149;28;20462;-51
2023/09/07 09:17:26;;;;;;;7.32;5.85;;;;;;;31.59;100.00;101886.94;5013290;28;20037;-48
2023/09/07 09:19:52;;;;;;;7.30;5.57;;;;;;;31.93;100.00;101897.00;4995587;28;20399;-48
2023/09/07 09:22:17;;;;;;;5.22;4.65;;;;;;;31.64;100.00;101829.31;5013033;28;20088;-49
2023/09/07 09:24:43;;;;;;;6.60;5.72;;;;;;;32.00;100.00;101863.50;5028189;28;20084;-47
2023/09/07 09:27:08;;;;;;;10.43;6.68;;;;;;;32.53;100.00;101895.03;5012853;28;20534;-48
2023/09/07 09:29:34;;;;;;;5.80;5.22;;;;;;;32.32;100.00;101819.19;5012570;28;20038;-49
2023/09/07 09:32:04;;;;;;;6.28;5.60;;;;;;;32.06;100.00;101841.09;4995505;28;20037;-50
2023/09/07 09:34:34;;;;;;;6.03;5.43;;;;;;;32.46;100.00;101842.22;4995429;28;20453;-52
2023/09/07 09:36:59;;;;;;;10.70;6.43;;;;;;;32.59;100.00;101839.88;5028218;28;20474;-47
2023/09/07 09:39:25;;;;;;;7.45;6.00;;;;;;;32.47;100.00;101882.06;5028668;28;20026;-50
2023/09/07 09:41:51;;;;;;;9.10;6.35;;;;;;;31.99;100.00;101836.44;5012605;28;20132;-48
2023/09/07 09:44:17;;;;;;;9.40;6.20;;;;;;;32.35;100.00;101897.88;5012557;28;20069;-50
2023/09/07 09:46:43;;;;;;;8.48;5.65;;;;;;;32.13;100.00;101879.44;4994602;28;20073;-47
2023/09/07 09:49:11;;;;;;;10.07;5.65;;;;;;;31.87;100.00;101816.84;5011680;28;20033;-49
2023/09/07 09:51:37;;;;;;;5.55;4.93;;;;;;;32.90;100.00;101890.00;5027620;28;20033;-50
2023/09/07 09:54:03;;;;;;;7.88;5.72;;;;;;;33.22;100.00;101873.66;5027676;28;20041;-48
2023/09/07 09:56:29;;;;;;;6.18;5.18;;;;;;;33.52;100.00;101887.63;5012137;28;20069;-48
2023/09/07 09:58:54;;;;;;;7.68;4.95;;;;;;;33.90;100.00;101863.13;5012633;28;20034;-50
2023/09/07 10:01:20;;;;;;;7.03;5.03;;;;;;;34.41;100.00;101863.59;5012479;28;20164;-47
2023/09/07 10:03:47;;;;;;;8.35;5.63;;;;;;;34.28;100.00;101890.66;5027023;28;20863;-49
2023/09/07 10:06:25;;;;;;;5.90;5.25;;;;;;;34.00;100.00;101840.22;5012362;28;20148;-48
2023/09/07 10:09:17;;;;;;;7.80;4.40;;;;;;;34.71;100.00;101892.81;5011952;28;20046;-53
2023/09/07 10:11:42;;;;;;;7.25;4.90;;;;;;;34.47;100.00;101833.63;4995397;28;20467;-51
2023/09/07 10:14:08;;;;;;;5.72;4.95;;;;;;;34.78;100.00;101904.75;5012067;28;20042;-47
2023/09/07 10:16:48;;;;;;;7.10;4.88;;;;;;;35.04;100.00;101888.78;5012172;28;20030;-48
2023/09/07 10:19:17;;;;;;;;;;;;;;;34.87;100.00;101892.69;5012898;28;20064;-49
2023/09/07 10:21:42;;;;;;;5.32;4.57;;;;;;;34.53;100.00;101828.50;5026882;28;19913;-48
2023/09/07 10:24:08;;;;;;;6.53;4.55;;;;;;;34.56;100.00;101893.75;5012192;28;20506;-49
2023/09/07 10:26:33;;;;;;;5.90;4.70;;;;;;;34.47;100.00;101817.22;5011819;28;20037;-46
2023/09/07 10:29:00;;;;;;;4.97;3.83;;;;;;;35.08;100.00;101892.06;5012064;28;20038;-48
2023/09/07 10:31:26;;;;;;;7.97;4.45;;;;;;;35.00;100.00;101876.50;4994549;28;20113;-52
2023/09/07 10:33:51;;;;;;;6.25;4.35;;;;;;;34.55;100.00;101786.25;5010536;28;20388;-49
2023/09/07 10:36:27;;;;;;;6.00;3.90;;;;;;;35.49;100.00;101876.09;5027364;28;20117;-48
2023/09/07 10:38:55;;;;;;;6.15;4.32;;;;;;;35.23;99.05;101826.41;5011220;28;20037;-49
2023/09/07 10:41:21;;;;;;;4.40;3.70;;;;;;;35.56;99.20;101888.00;5011664;28;20056;-52
2023/09/07 10:44:06;;;;;;;7.45;4.28;;;;;;;35.48;100.00;101864.28;4994259;28;20487;-49
2023/09/07 10:46:31;;;;;;;4.93;3.80;;;;;;;35.43;99.75;101874.09;5011964;28;20402;-51
2023/09/07 10:48:57;;;;;;;14.20;4.25;;;;;;;35.80;100.00;101823.88;5011683;28;20030;-50
2023/09/07 10:51:23;;;;;;;4.00;3.60;;;;;;;36.62;96.03;101886.53;5011687;28;20543;-46
2023/09/07 10:53:48;;;;;;;6.50;3.85;;;;;;;36.19;98.66;101879.25;5011079;28;20479;-50
2023/09/07 10:56:14;;;;;;;5.60;4.13;;;;;;;35.94;98.24;101826.59;5026863;28;20066;-48
2023/09/07 10:58:41;;;;;;;6.70;4.15;;;;;;;36.28;97.63;101869.88;4994007;28;20084;-50
2023/09/07 11:01:07;;;;;;;7.10;4.43;;;;;;;35.98;99.29;101865.44;5011887;28;20059;-47